Time;durP1;ratioP1;P1;durP2;ratioP2;P2;SDS_P1;SDS_P2;PMS_P1;PMS_P2;Temp;Humidity;BMP_temperature;BMP_pressure;BME280_temperature;BME280_humidity;BME280_pressure;Samples;Min_cycle;Max_cycle;Signal;HPM_P1;HPM_P2
2023/07/31 00:01:19;;;;;;;10.75;10.35;;;16.20;99.90;;;;;;5029687;28;20587;-66
2023/07/31 00:03:46;;;;;;;10.70;10.30;;;16.10;99.90;;;;;;5029558;28;20231;-65
2023/07/31 00:06:13;;;;;;;10.73;10.33;;;16.00;99.90;;;;;;5029804;28;20212;-65
2023/07/31 00:08:40;;;;;;;10.17;9.83;;;16.10;99.90;;;;;;5029286;28;20205;-65
2023/07/31 00:11:08;;;;;;;13.80;13.30;;;16.00;99.90;;;;;;5028909;28;20581;-65
2023/07/31 00:13:35;;;;;;;10.17;9.87;;;15.90;99.90;;;;;;5030056;28;20232;-65
2023/07/31 00:16:02;;;;;;;13.07;12.57;;;15.80;99.90;;;;;;5029979;28;20250;-65
2023/07/31 00:18:29;;;;;;;10.80;10.40;;;15.80;99.90;;;;;;5029755;28;20575;-65
2023/07/31 00:20:56;;;;;;;12.63;12.10;;;15.70;99.90;;;;;;5027954;28;20214;-64
2023/07/31 00:23:23;;;;;;;9.53;9.13;;;15.70;99.90;;;;;;5030441;28;20233;-64
2023/07/31 00:25:50;;;;;;;9.60;9.30;;;15.60;99.90;;;;;;5030761;28;20203;-63
2023/07/31 00:28:18;;;;;;;9.37;9.07;;;15.70;99.90;;;;;;5030465;28;20208;-64
2023/07/31 00:30:45;;;;;;;9.63;9.20;;;15.70;99.90;;;;;;5029865;28;20209;-63
2023/07/31 00:33:11;;;;;;;10.07;9.67;;;15.70;99.90;;;;;;5030721;28;20229;-64
2023/07/31 00:35:38;;;;;;;10.13;9.73;;;15.70;99.90;;;;;;5030755;28;20229;-64
2023/07/31 00:38:05;;;;;;;10.30;10.00;;;15.70;99.90;;;;;;5031016;28;20204;-63
2023/07/31 00:40:36;;;;;;;12.50;12.00;;;15.70;99.90;;;;;;5030027;28;20208;-64
2023/07/31 00:43:03;;;;;;;9.50;9.20;;;15.70;99.90;;;;;;5030294;28;20237;-64
2023/07/31 00:45:32;;;;;;;10.50;10.10;;;15.60;99.90;;;;;;5029717;28;20627;-64
2023/07/31 00:47:59;;;;;;;10.03;9.63;;;15.60;99.90;;;;;;5029405;28;20209;-64
2023/07/31 00:50:26;;;;;;;9.40;9.10;;;15.60;99.90;;;;;;5028813;28;20215;-64
2023/07/31 00:52:53;;;;;;;9.93;9.53;;;15.60;99.90;;;;;;5029519;28;20228;-64
2023/07/31 00:55:21;;;;;;;10.23;9.83;;;15.70;99.90;;;;;;5029315;28;20548;-64
2023/07/31 00:57:49;;;;;;;10.37;9.97;;;15.70;99.90;;;;;;5029437;28;20209;-64
2023/07/31 01:00:16;;;;;;;9.77;9.40;;;15.60;99.90;;;;;;5028483;28;20250;-64
2023/07/31 01:02:45;;;;;;;10.47;10.07;;;15.60;99.90;;;;;;5029206;28;20220;-65
2023/07/31 01:05:12;;;;;;;9.63;9.33;;;15.60;99.90;;;;;;5029292;28;20585;-64
2023/07/31 01:07:50;;;;;;;10.20;9.80;;;15.60;99.90;;;;;;5029016;28;20304;-64
2023/07/31 01:10:21;;;;;;;10.20;9.90;;;15.70;99.90;;;;;;5028363;28;20215;-64
2023/07/31 01:12:49;;;;;;;10.93;10.53;;;15.60;99.90;;;;;;5027558;28;20391;-64
2023/07/31 01:15:17;;;;;;;9.47;9.17;;;15.60;99.90;;;;;;5028762;28;20209;-64
2023/07/31 01:17:45;;;;;;;10.43;10.03;;;15.60;99.90;;;;;;5029294;28;20259;-64
2023/07/31 01:20:15;;;;;;;10.70;10.30;;;15.60;99.90;;;;;;5028192;28;20209;-64
2023/07/31 01:23:04;;;;;;;9.73;9.33;;;15.60;99.90;;;;;;5031844;28;20236;-64
2023/07/31 01:25:57;;;;;;;9.70;9.30;;;15.50;99.90;;;;;;5058643;22;20226;-69
2023/07/31 01:28:30;;;;;;;9.63;9.33;;;15.50;99.90;;;;;;5061380;28;20203;-66
2023/07/31 01:31:00;;;;;;;9.90;9.53;;;15.40;99.90;;;;;;5070724;28;20298;-66
2023/07/31 01:33:27;;;;;;;9.83;9.43;;;15.40;99.90;;;;;;5071855;28;20199;-67
2023/07/31 01:35:54;;;;;;;9.17;8.87;;;15.40;99.90;;;;;;5071734;28;20219;-67
2023/07/31 01:38:22;;;;;;;9.27;8.97;;;15.30;99.90;;;;;;5072152;28;20199;-67
2023/07/31 01:40:53;;;;;;;9.63;9.33;;;15.30;99.90;;;;;;5071128;28;20214;-67
2023/07/31 01:43:21;;;;;;;9.50;9.20;;;15.40;99.90;;;;;;5071402;28;20536;-66
2023/07/31 01:45:48;;;;;;;10.40;10.00;;;15.40;99.90;;;;;;5072563;28;20740;-68
2023/07/31 01:48:14;;;;;;;10.80;10.30;;;15.40;99.90;;;;;;5073382;28;20203;-68
2023/07/31 01:50:41;;;;;;;10.40;10.00;;;15.40;99.90;;;;;;5068272;28;20210;-65
2023/07/31 01:53:08;;;;;;;10.53;10.13;;;15.40;99.90;;;;;;5072172;28;20219;-66
2023/07/31 01:55:35;;;;;;;10.47;10.07;;;15.50;99.90;;;;;;5072271;28;20254;-68
2023/07/31 01:58:02;;;;;;;10.63;10.23;;;15.50;99.90;;;;;;5071716;28;20214;-68
2023/07/31 02:00:30;;;;;;;11.43;11.03;;;15.50;99.90;;;;;;5071172;28;20207;-66
2023/07/31 02:02:57;;;;;;;10.17;9.87;;;15.50;99.90;;;;;;5071597;28;20656;-68
2023/07/31 02:05:23;;;;;;;10.07;9.70;;;15.50;99.90;;;;;;5071304;28;20263;-66
2023/07/31 02:07:50;;;;;;;10.73;10.33;;;15.60;99.90;;;;;;5071918;28;20218;-66
2023/07/31 02:10:17;;;;;;;10.87;10.37;;;15.60;99.90;;;;;;5071283;28;20235;-67
2023/07/31 02:12:44;;;;;;;11.30;10.90;;;15.60;99.90;;;;;;5071658;28;20210;-68
2023/07/31 02:15:11;;;;;;;11.60;11.20;;;15.50;99.90;;;;;;5071441;28;20318;-67
2023/07/31 02:17:39;;;;;;;13.53;13.03;;;15.50;99.90;;;;;;5072601;28;20229;-65
2023/07/31 02:20:07;;;;;;;11.07;10.67;;;15.50;99.90;;;;;;5072051;28;20207;-67
2023/07/31 02:22:34;;;;;;;10.90;10.50;;;15.40;99.90;;;;;;5072737;28;20203;-66
2023/07/31 02:25:01;;;;;;;11.37;10.97;;;15.40;99.90;;;;;;5072413;28;20322;-66
2023/07/31 02:27:27;;;;;;;10.23;9.83;;;15.40;99.90;;;;;;5072487;28;20634;-66
2023/07/31 02:29:55;;;;;;;11.40;10.90;;;15.40;99.90;;;;;;5071625;28;20210;-68
2023/07/31 02:32:21;;;;;;;10.88;10.48;;;15.30;99.90;;;;;;5072338;28;20207;-68
2023/07/31 02:34:50;;;;;;;10.23;9.83;;;15.30;99.90;;;;;;5079227;28;20223;-66
2023/07/31 02:37:16;;;;;;;10.97;10.57;;;15.30;99.90;;;;;;5081458;28;20327;-68
2023/07/31 02:39:43;;;;;;;10.80;10.40;;;15.30;99.90;;;;;;5071209;28;20635;-68
2023/07/31 02:42:10;;;;;;;11.53;11.13;;;15.30;99.90;;;;;;5074132;28;20203;-67
2023/07/31 02:44:37;;;;;;;11.03;10.63;;;15.30;99.90;;;;;;5072484;28;20261;-68
2023/07/31 02:47:04;;;;;;;11.10;10.70;;;15.30;99.90;;;;;;5072225;28;20237;-67
2023/07/31 02:49:31;;;;;;;10.93;10.53;;;15.40;99.90;;;;;;5071938;28;20202;-68
2023/07/31 02:51:59;;;;;;;11.43;11.03;;;15.40;99.90;;;;;;5072464;28;20207;-67
2023/07/31 02:54:26;;;;;;;11.50;11.03;;;15.30;99.90;;;;;;5072574;28;20203;-67
2023/07/31 02:56:53;;;;;;;11.70;11.30;;;15.20;99.90;;;;;;5072021;28;20227;-68
2023/07/31 02:59:21;;;;;;;16.03;15.43;;;15.20;99.90;;;;;;5071071;28;20207;-68
2023/07/31 03:01:48;;;;;;;11.03;10.53;;;15.30;99.90;;;;;;5071809;28;20207;-68
2023/07/31 03:04:15;;;;;;;11.30;10.90;;;15.30;99.90;;;;;;5072875;28;20203;-68
2023/07/31 03:06:42;;;;;;;13.53;13.03;;;15.30;99.90;;;;;;5071303;28;20318;-68
2023/07/31 03:09:10;;;;;;;12.00;11.50;;;15.30;99.90;;;;;;5069988;28;20840;-70
2023/07/31 03:11:37;;;;;;;11.53;11.13;;;15.30;99.90;;;;;;5072039;28;20732;-67
2023/07/31 03:14:03;;;;;;;12.03;11.63;;;15.30;99.90;;;;;;5070292;28;20203;-68
2023/07/31 03:16:30;;;;;;;12.50;12.03;;;15.40;99.90;;;;;;5070241;28;20222;-67
2023/07/31 03:18:57;;;;;;;12.18;11.77;;;15.30;99.90;;;;;;5070236;28;20309;-67
2023/07/31 03:21:24;;;;;;;11.73;11.33;;;15.40;99.90;;;;;;5069599;28;20687;-68
2023/07/31 03:23:51;;;;;;;11.20;10.73;;;15.30;99.90;;;;;;5077390;28;20205;-68
2023/07/31 03:26:19;;;;;;;11.23;10.83;;;15.20;99.90;;;;;;5086149;28;20267;-67
2023/07/31 03:28:46;;;;;;;10.90;10.50;;;15.30;99.90;;;;;;5070895;28;20230;-67
2023/07/31 03:31:13;;;;;;;11.73;11.33;;;15.30;99.90;;;;;;5069829;28;20209;-69
2023/07/31 03:33:39;;;;;;;10.90;10.50;;;15.30;99.90;;;;;;5070301;28;20257;-65
2023/07/31 03:36:07;;;;;;;10.97;10.57;;;15.20;99.90;;;;;;5068963;28;20229;-68
2023/07/31 03:38:34;;;;;;;11.20;10.80;;;15.10;99.90;;;;;;5071104;28;20563;-66
2023/07/31 03:41:02;;;;;;;11.00;10.60;;;15.10;99.90;;;;;;5069622;28;20195;-66
2023/07/31 03:43:30;;;;;;;11.17;10.77;;;15.10;99.90;;;;;;5069975;28;20210;-68
2023/07/31 03:45:57;;;;;;;12.00;11.50;;;15.10;99.90;;;;;;5070235;28;20226;-67
2023/07/31 03:48:24;;;;;;;11.43;11.03;;;15.10;99.90;;;;;;5070477;28;20205;-68
2023/07/31 03:50:50;;;;;;;11.63;11.23;;;15.10;99.90;;;;;;5069035;28;20207;-67
2023/07/31 03:53:17;;;;;;;11.40;11.00;;;15.20;99.90;;;;;;5069939;28;20592;-66
2023/07/31 03:55:44;;;;;;;10.80;10.40;;;15.10;99.90;;;;;;5069695;28;20227;-66
2023/07/31 03:58:11;;;;;;;10.93;10.53;;;15.10;99.90;;;;;;5069718;28;20230;-67
2023/07/31 04:00:40;;;;;;;12.07;11.67;;;15.10;99.90;;;;;;5068806;28;20302;-67
2023/07/31 04:03:07;;;;;;;10.83;10.43;;;15.10;99.90;;;;;;5069545;28;20207;-68
2023/07/31 04:05:34;;;;;;;10.93;10.53;;;15.20;99.90;;;;;;5069588;28;20219;-68
2023/07/31 04:08:00;;;;;;;10.70;10.30;;;15.20;99.90;;;;;;5067630;28;20556;-66
2023/07/31 04:10:28;;;;;;;11.07;10.67;;;15.20;99.90;;;;;;5069178;28;20207;-68
2023/07/31 04:12:54;;;;;;;11.30;10.80;;;15.10;99.90;;;;;;5069745;28;20211;-66
2023/07/31 04:15:21;;;;;;;11.03;10.63;;;15.30;99.90;;;;;;5069494;28;20230;-66
2023/07/31 04:17:49;;;;;;;11.07;10.65;;;15.10;99.90;;;;;;5069918;28;20989;-66
2023/07/31 04:20:16;;;;;;;11.03;10.63;;;15.10;99.90;;;;;;5069487;28;20500;-66
2023/07/31 04:22:43;;;;;;;10.83;10.43;;;15.10;99.90;;;;;;5069303;28;20203;-66
2023/07/31 04:25:10;;;;;;;11.00;10.60;;;15.20;99.90;;;;;;5069412;28;20227;-67
2023/07/31 04:27:37;;;;;;;11.43;11.03;;;15.30;99.90;;;;;;5069532;28;20673;-67
2023/07/31 04:30:04;;;;;;;12.03;11.63;;;15.30;99.90;;;;;;5068567;28;20207;-66
2023/07/31 04:32:31;;;;;;;12.00;11.53;;;15.40;99.90;;;;;;5069296;28;20210;-66
2023/07/31 04:34:59;;;;;;;10.87;10.47;;;15.40;99.90;;;;;;5069525;28;20222;-66
2023/07/31 04:37:26;;;;;;;12.30;11.80;;;15.50;99.90;;;;;;5065776;28;20223;-67
2023/07/31 04:39:53;;;;;;;11.63;11.23;;;15.50;99.90;;;;;;5073127;28;20189;-66
2023/07/31 04:42:19;;;;;;;11.10;10.70;;;15.50;99.90;;;;;;5081381;28;20203;-70
2023/07/31 04:44:46;;;;;;;12.20;11.80;;;15.50;99.90;;;;;;5071909;28;20230;-66
2023/07/31 04:47:13;;;;;;;11.53;11.13;;;15.50;99.90;;;;;;5081006;28;20194;-66
2023/07/31 04:49:40;;;;;;;10.90;10.50;;;15.50;99.90;;;;;;5069829;28;20199;-67
2023/07/31 04:52:08;;;;;;;11.00;10.60;;;15.50;99.90;;;;;;5070478;28;20207;-66
2023/07/31 04:54:35;;;;;;;12.10;11.60;;;15.60;99.90;;;;;;5070770;28;20199;-67
2023/07/31 04:57:02;;;;;;;12.47;12.03;;;15.60;99.90;;;;;;5073020;28;20696;-67
2023/07/31 04:59:29;;;;;;;11.40;11.00;;;15.70;99.90;;;;;;5071982;28;20199;-66
2023/07/31 05:01:56;;;;;;;11.60;11.20;;;15.70;99.90;;;;;;5072933;28;20253;-67
2023/07/31 05:04:23;;;;;;;11.50;11.10;;;15.80;99.90;;;;;;5075593;28;20663;-66
2023/07/31 05:06:50;;;;;;;12.10;11.52;;;15.80;99.90;;;;;;5073827;28;20199;-67
2023/07/31 05:09:18;;;;;;;10.80;10.40;;;15.80;99.90;;;;;;5075291;28;20214;-66
2023/07/31 05:11:45;;;;;;;12.60;12.20;;;15.90;99.90;;;;;;5073564;28;20230;-67
2023/07/31 05:14:12;;;;;;;12.47;12.00;;;15.90;99.90;;;;;;5072716;28;20229;-67
2023/07/31 05:16:39;;;;;;;12.83;12.37;;;16.00;99.90;;;;;;5072261;28;20253;-67
2023/07/31 05:19:05;;;;;;;12.23;11.83;;;16.00;99.90;;;;;;5071349;28;20207;-66
2023/07/31 05:21:32;;;;;;;12.40;12.00;;;16.00;99.90;;;;;;5072489;28;20595;-66
2023/07/31 05:23:59;;;;;;;13.50;13.00;;;16.00;99.90;;;;;;5073579;28;20293;-67
2023/07/31 05:26:27;;;;;;;16.17;15.57;;;16.00;99.90;;;;;;5091378;28;20310;-66
2023/07/31 05:28:54;;;;;;;16.37;15.77;;;16.10;99.90;;;;;;5073002;28;20229;-66
2023/07/31 05:31:22;;;;;;;13.27;12.80;;;16.10;99.90;;;;;;5070083;28;20312;-66
2023/07/31 05:33:49;;;;;;;14.17;13.67;;;16.20;99.90;;;;;;5073212;28;20211;-65
2023/07/31 05:36:16;;;;;;;15.53;14.93;;;16.20;99.90;;;;;;5069099;28;20230;-66
2023/07/31 05:38:44;;;;;;;13.93;13.43;;;16.20;99.90;;;;;;5072030;28;20312;-65
2023/07/31 05:41:12;;;;;;;13.47;12.97;;;16.30;99.90;;;;;;5070259;28;20230;-65
2023/07/31 05:43:40;;;;;;;15.27;14.67;;;16.30;99.90;;;;;;5065818;28;20214;-65
2023/07/31 05:46:09;;;;;;;14.97;14.47;;;16.40;99.90;;;;;;5070422;28;21002;-66
2023/07/31 05:48:35;;;;;;;17.97;17.33;;;16.50;99.90;;;;;;5069671;28;20710;-67
2023/07/31 05:51:02;;;;;;;18.60;17.93;;;16.60;99.90;;;;;;5063782;28;20212;-66
2023/07/31 05:53:29;;;;;;;19.23;18.53;;;16.60;99.90;;;;;;5063449;28;20214;-66
2023/07/31 05:55:56;;;;;;;19.90;19.20;;;16.80;99.90;;;;;;5070309;28;20706;-67
2023/07/31 05:58:23;;;;;;;21.50;20.70;;;16.90;99.90;;;;;;5071883;28;20211;-67
2023/07/31 06:00:52;;;;;;;22.97;22.17;;;17.00;99.90;;;;;;5070726;28;20203;-66
2023/07/31 06:03:19;;;;;;;25.23;24.33;;;17.10;99.90;;;;;;5065025;28;20199;-66
2023/07/31 06:05:46;;;;;;;25.13;24.23;;;17.20;99.90;;;;;;5069349;28;20340;-67
2023/07/31 06:08:13;;;;;;;22.17;21.37;;;17.20;99.90;;;;;;5068439;28;20650;-66
2023/07/31 06:10:39;;;;;;;23.20;22.40;;;17.30;99.90;;;;;;5071260;28;20225;-67
2023/07/31 06:13:06;;;;;;;22.37;21.57;;;17.40;99.90;;;;;;5071925;28;20213;-65
2023/07/31 06:15:33;;;;;;;24.57;23.67;;;17.50;99.90;;;;;;5072506;28;20591;-65
2023/07/31 06:18:03;;;;;;;25.80;24.83;;;17.50;99.90;;;;;;5072542;28;20227;-66
2023/07/31 06:20:30;;;;;;;22.40;21.60;;;17.60;99.90;;;;;;5071646;28;20207;-67
2023/07/31 06:22:56;;;;;;;25.30;24.40;;;17.60;99.90;;;;;;5072577;28;20214;-66
2023/07/31 06:25:23;;;;;;;26.23;25.33;;;17.70;99.90;;;;;;5072881;28;20752;-66
2023/07/31 06:27:50;;;;;;;23.97;23.13;;;17.80;99.90;;;;;;5072846;28;20206;-66
2023/07/31 06:30:17;;;;;;;21.40;20.60;;;17.90;99.90;;;;;;5072642;28;20206;-66
2023/07/31 06:32:44;;;;;;;20.30;19.60;;;18.00;99.90;;;;;;5073416;28;20204;-66
2023/07/31 06:35:12;;;;;;;22.67;21.87;;;18.10;99.90;;;;;;5073378;28;20230;-65
2023/07/31 06:37:40;;;;;;;25.03;24.13;;;18.20;99.90;;;;;;5074159;28;20318;-67
2023/07/31 06:40:08;;;;;;;27.33;26.33;;;18.20;99.90;;;;;;5071969;28;20294;-67
2023/07/31 06:42:35;;;;;;;27.33;26.33;;;18.40;99.90;;;;;;5087057;28;20231;-66
2023/07/31 06:45:02;;;;;;;20.10;19.40;;;18.40;99.90;;;;;;5088966;28;20207;-66
2023/07/31 06:47:29;;;;;;;18.70;18.00;;;18.50;99.90;;;;;;5088275;28;20219;-66
2023/07/31 06:49:57;;;;;;;22.17;21.27;;;18.60;99.90;;;;;;5071658;28;20214;-66
2023/07/31 06:52:25;;;;;;;16.57;15.97;;;18.70;99.90;;;;;;5073137;28;20211;-65
2023/07/31 06:55:02;;;;;;;17.65;17.05;;;18.80;99.90;;;;;;5071217;28;20250;-67
2023/07/31 06:57:29;;;;;;;18.57;17.90;;;18.80;99.90;;;;;;5072548;28;20744;-66
2023/07/31 06:59:56;;;;;;;20.03;19.33;;;18.90;99.90;;;;;;5079366;28;20290;-67
2023/07/31 07:02:23;;;;;;;20.23;19.50;;;19.10;99.90;;;;;;5073464;28;20222;-66
2023/07/31 07:04:50;;;;;;;19.13;18.43;;;19.10;99.90;;;;;;5071173;28;20613;-67
2023/07/31 07:07:18;;;;;;;19.63;18.93;;;19.20;99.90;;;;;;5071606;28;20298;-66
2023/07/31 07:09:46;;;;;;;22.67;21.87;;;19.20;99.90;;;;;;5071790;28;20199;-67
2023/07/31 07:12:13;;;;;;;21.03;20.23;;;19.30;99.90;;;;;;5071370;28;20218;-66
2023/07/31 07:14:40;;;;;;;20.30;19.60;;;19.30;99.90;;;;;;5071432;28;20222;-66
2023/07/31 07:17:07;;;;;;;17.43;16.83;;;19.40;99.90;;;;;;5070879;28;20634;-66
2023/07/31 07:19:33;;;;;;;16.92;16.33;;;19.40;99.90;;;;;;5070160;28;20206;-67
2023/07/31 07:22:01;;;;;;;15.13;14.57;;;19.60;99.90;;;;;;5071590;28;20206;-66
2023/07/31 07:24:28;;;;;;;18.87;18.07;;;19.70;99.90;;;;;;5070494;28;20379;-67
2023/07/31 07:26:57;;;;;;;16.30;15.70;;;19.90;99.90;;;;;;5092996;22;20231;-65
2023/07/31 07:29:23;;;;;;;14.00;13.50;;;20.10;99.90;;;;;;5065387;28;20731;-63
2023/07/31 07:31:50;;;;;;;15.33;14.83;;;20.20;99.90;;;;;;5070915;28;20249;-65
2023/07/31 07:34:17;;;;;;;16.20;15.60;;;20.30;99.90;;;;;;5071057;28;20260;-65
2023/07/31 07:36:44;;;;;;;16.67;16.10;;;20.50;99.90;;;;;;5072387;28;20315;-64
2023/07/31 07:39:11;;;;;;;15.80;15.27;;;20.60;99.90;;;;;;5073942;28;20277;-66
2023/07/31 07:41:38;;;;;;;15.70;15.10;;;20.60;99.90;;;;;;5071704;28;20207;-63
2023/07/31 07:44:07;;;;;;;19.23;18.53;;;20.90;99.90;;;;;;5072023;28;20209;-66
2023/07/31 07:46:34;;;;;;;16.57;15.97;;;20.90;99.90;;;;;;5071898;28;20230;-65
2023/07/31 07:49:00;;;;;;;14.07;13.57;;;21.00;99.90;;;;;;5071243;28;20203;-63
2023/07/31 07:51:29;;;;;;;15.07;14.50;;;21.20;99.90;;;;;;5070479;28;20290;-65
2023/07/31 07:53:56;;;;;;;14.50;14.00;;;21.30;99.90;;;;;;5071089;28;20867;-65
2023/07/31 07:56:26;;;;;;;15.80;15.20;;;21.30;99.90;;;;;;5071971;28;20306;-64
2023/07/31 07:58:53;;;;;;;12.93;12.43;;;21.50;99.90;;;;;;5072360;28;20317;-64
2023/07/31 08:01:22;;;;;;;16.75;16.05;;;21.70;99.90;;;;;;5069979;28;20294;-65
2023/07/31 08:03:49;;;;;;;16.10;15.50;;;21.80;99.90;;;;;;5071067;28;20198;-64
2023/07/31 08:06:16;;;;;;;10.90;10.50;;;21.80;99.90;;;;;;5070741;28;20227;-65
2023/07/31 08:08:43;;;;;;;10.53;10.13;;;21.90;99.90;;;;;;5069908;28;20203;-65
2023/07/31 08:11:09;;;;;;;9.25;8.95;;;21.90;99.90;;;;;;5069512;28;20668;-66
2023/07/31 08:13:37;;;;;;;10.60;10.23;;;22.00;99.90;;;;;;5071207;28;20210;-65
2023/07/31 08:16:04;;;;;;;8.60;8.30;;;22.00;99.90;;;;;;5069939;28;20199;-65
2023/07/31 08:18:33;;;;;;;8.25;7.95;;;22.10;99.90;;;;;;5069929;28;20313;-64
2023/07/31 08:21:00;;;;;;;11.10;10.70;;;22.10;99.90;;;;;;5069132;28;20294;-64
2023/07/31 08:23:26;;;;;;;10.00;9.60;;;22.00;99.90;;;;;;5070577;28;20209;-64
2023/07/31 08:25:53;;;;;;;8.73;8.43;;;21.90;99.90;;;;;;5070895;28;20207;-64
2023/07/31 08:28:20;;;;;;;10.97;10.47;;;21.90;99.90;;;;;;5071172;28;20215;-65
2023/07/31 08:30:47;;;;;;;9.18;8.88;;;21.90;99.90;;;;;;5071720;28;20207;-66
2023/07/31 08:33:14;;;;;;;11.05;10.65;;;21.90;99.90;;;;;;5074038;28;20230;-65
2023/07/31 08:35:42;;;;;;;10.13;9.82;;;21.90;99.90;;;;;;5074161;28;20241;-65
2023/07/31 08:38:09;;;;;;;10.67;10.33;;;21.90;99.90;;;;;;5073881;28;20219;-64
2023/07/31 08:40:37;;;;;;;10.63;10.23;;;21.90;99.90;;;;;;5073524;28;20230;-66
2023/07/31 08:43:04;;;;;;;10.80;10.40;;;21.90;99.90;;;;;;5082665;28;20689;-65
2023/07/31 08:45:33;;;;;;;9.43;9.13;;;21.90;99.90;;;;;;5074410;28;20243;-64
2023/07/31 08:48:00;;;;;;;9.40;9.10;;;22.00;99.90;;;;;;5073972;28;20219;-65
2023/07/31 08:50:27;;;;;;;8.63;8.32;;;22.00;99.90;;;;;;5077812;28;20195;-66
2023/07/31 08:52:56;;;;;;;10.37;9.97;;;22.10;99.90;;;;;;5075172;28;20218;-64
2023/07/31 08:55:24;;;;;;;10.52;10.13;;;22.40;99.90;;;;;;5075155;28;20211;-66
2023/07/31 08:57:52;;;;;;;9.40;9.10;;;22.50;99.90;;;;;;5078599;28;20223;-65
2023/07/31 09:00:23;;;;;;;10.45;10.05;;;22.60;99.90;;;;;;5075225;28;20207;-64
2023/07/31 09:02:56;;;;;;;9.73;9.40;;;22.70;99.90;;;;;;5074297;28;20401;-67
2023/07/31 09:05:24;;;;;;;9.90;9.50;;;22.60;99.90;;;;;;5076210;28;20215;-67
2023/07/31 09:07:52;;;;;;;10.60;10.20;;;22.60;99.90;;;;;;5074234;28;20306;-66
2023/07/31 09:10:20;;;;;;;10.10;9.80;;;22.70;99.90;;;;;;5073459;28;20616;-65
2023/07/31 09:12:48;;;;;;;10.15;9.75;;;22.70;99.90;;;;;;5074520;28;20207;-66
2023/07/31 09:15:15;;;;;;;10.07;9.73;;;22.80;99.90;;;;;;5074361;28;20207;-64
2023/07/31 09:17:42;;;;;;;9.48;9.18;;;22.80;99.90;;;;;;5074667;28;20262;-65
2023/07/31 09:20:15;;;;;;;10.63;10.23;;;22.90;99.90;;;;;;5073871;28;20299;-66
2023/07/31 09:22:42;;;;;;;9.82;9.52;;;23.00;99.90;;;;;;5074234;28;20213;-67
2023/07/31 09:25:16;;;;;;;9.95;9.60;;;23.10;99.90;;;;;;5075238;28;20575;-65
2023/07/31 09:27:52;;;;;;;9.95;9.65;;;23.30;99.90;;;;;;5074905;28;20239;-65
2023/07/31 09:30:20;;;;;;;10.75;10.35;;;23.50;99.90;;;;;;5075024;28;20290;-65
2023/07/31 09:32:48;;;;;;;9.20;8.90;;;24.00;99.90;;;;;;5075377;28;20293;-65
2023/07/31 09:35:22;;;;;;;8.73;8.43;;;24.40;99.90;;;;;;5074758;28;20257;-65
2023/07/31 09:37:51;;;;;;;8.60;8.30;;;24.60;99.90;;;;;;5078836;28;20226;-65
2023/07/31 09:40:29;;;;;;;9.00;8.70;;;24.90;99.90;;;;;;5074015;28;20627;-67
2023/07/31 09:42:59;;;;;;;9.30;9.00;;;25.30;99.90;;;;;;5072496;28;20211;-63
2023/07/31 09:45:26;;;;;;;9.60;9.20;;;25.60;99.90;;;;;;5073628;28;20245;-66
2023/07/31 09:47:53;;;;;;;9.10;8.80;;;25.50;99.90;;;;;;5073147;28;20220;-65
2023/07/31 09:50:22;;;;;;;9.00;8.70;;;25.20;99.90;;;;;;5072116;28;20725;-65
2023/07/31 09:52:49;;;;;;;9.35;9.05;;;25.20;99.90;;;;;;5073314;28;20203;-66
2023/07/31 09:55:16;;;;;;;8.68;8.32;;;25.10;99.90;;;;;;5074616;28;20207;-65
2023/07/31 09:57:46;;;;;;;8.77;8.48;;;25.00;99.90;;;;;;5074160;28;20295;-66
2023/07/31 10:00:16;;;;;;;8.93;8.63;;;24.80;99.90;;;;;;5074494;28;20230;-64
2023/07/31 10:02:47;;;;;;;9.02;8.73;;;24.80;99.90;;;;;;5075029;28;20298;-64
2023/07/31 10:05:15;;;;;;;9.80;9.32;;;24.90;99.90;;;;;;5072203;28;20642;-65
2023/07/31 10:07:46;;;;;;;9.07;8.77;;;24.90;99.90;;;;;;5073614;28;20276;-65
2023/07/31 10:10:15;;;;;;;8.75;8.45;;;24.90;99.90;;;;;;5072482;28;20210;-65
2023/07/31 10:12:44;;;;;;;9.50;9.10;;;24.90;99.90;;;;;;5072282;28;20214;-67
2023/07/31 10:15:12;;;;;;;8.88;8.55;;;25.10;99.90;;;;;;5072546;28;20641;-67
2023/07/31 10:17:41;;;;;;;9.02;8.73;;;25.30;99.90;;;;;;5073576;28;20215;-64
2023/07/31 10:20:09;;;;;;;9.23;8.82;;;25.30;99.90;;;;;;5073188;28;20319;-65
2023/07/31 10:22:37;;;;;;;9.20;8.90;;;25.10;99.90;;;;;;5074466;28;20207;-65
2023/07/31 10:25:05;;;;;;;8.80;8.50;;;25.10;99.90;;;;;;5072890;28;20210;-64
2023/07/31 10:27:32;;;;;;;10.50;10.10;;;25.20;99.90;;;;;;5072030;28;20234;-65
2023/07/31 10:30:00;;;;;;;9.18;8.88;;;25.20;99.90;;;;;;5071313;28;20201;-68
2023/07/31 10:32:28;;;;;;;8.70;8.40;;;25.10;99.90;;;;;;5072414;28;20381;-65
2023/07/31 10:34:58;;;;;;;8.77;8.48;;;24.90;99.90;;;;;;5071903;28;20693;-64
2023/07/31 10:37:26;;;;;;;31.02;29.55;;;24.80;99.90;;;;;;5071990;28;20314;-65
2023/07/31 10:39:58;;;;;;;9.02;8.73;;;24.60;99.90;;;;;;5072500;28;20231;-64
2023/07/31 10:42:34;;;;;;;9.10;8.80;;;24.20;99.90;;;;;;5079029;28;20260;-64
2023/07/31 10:45:03;;;;;;;8.88;8.57;;;24.00;99.90;;;;;;5079052;28;20229;-66
2023/07/31 10:47:30;;;;;;;9.10;8.80;;;24.00;99.90;;;;;;5079250;28;20225;-65
2023/07/31 10:50:19;;;;;;;10.35;9.95;;;24.00;99.90;;;;;;5077621;28;20198;-64
2023/07/31 10:52:50;;;;;;;8.50;8.20;;;23.90;99.90;;;;;;5071513;28;20245;-65
2023/07/31 10:55:25;;;;;;;8.68;8.38;;;23.90;99.90;;;;;;5072166;28;20614;-66
2023/07/31 10:57:53;;;;;;;8.27;7.97;;;23.80;99.90;;;;;;5074380;28;20250;-65
2023/07/31 11:00:26;;;;;;;8.50;8.20;;;23.90;99.90;;;;;;5075255;28;20243;-65
2023/07/31 11:03:04;;;;;;;8.30;8.00;;;23.80;99.90;;;;;;5075502;28;20227;-63
2023/07/31 11:05:53;;;;;;;8.73;8.43;;;23.70;99.90;;;;;;5076710;28;20233;-65
2023/07/31 11:08:23;;;;;;;8.27;7.97;;;23.70;99.90;;;;;;5071567;28;20227;-64
2023/07/31 11:10:52;;;;;;;9.20;8.90;;;23.80;99.90;;;;;;5071204;28;20597;-64
2023/07/31 11:13:18;;;;;;;9.18;8.88;;;23.80;99.90;;;;;;5071250;28;20680;-66
2023/07/31 11:15:46;;;;;;;9.23;8.93;;;23.90;99.90;;;;;;5074702;28;20209;-65
2023/07/31 11:18:13;;;;;;;8.95;8.65;;;24.00;99.90;;;;;;5075460;28;20262;-64
2023/07/31 11:20:40;;;;;;;8.68;8.38;;;24.10;99.90;;;;;;5075578;28;20269;-64
2023/07/31 11:23:11;;;;;;;8.52;8.23;;;24.30;99.90;;;;;;5075864;28;20203;-64
2023/07/31 11:25:40;;;;;;;8.75;8.45;;;24.30;99.90;;;;;;5075662;28;20205;-64
2023/07/31 11:28:08;;;;;;;8.70;8.38;;;24.40;99.90;;;;;;5074605;28;20231;-64
2023/07/31 11:30:36;;;;;;;8.50;8.20;;;24.80;99.90;;;;;;5073169;28;20246;-64
2023/07/31 11:33:04;;;;;;;9.07;8.77;;;25.00;99.90;;;;;;5073662;28;20296;-64
2023/07/31 11:35:32;;;;;;;8.30;8.00;;;25.30;99.90;;;;;;5075538;28;20468;-65
2023/07/31 11:37:59;;;;;;;9.18;8.77;;;25.50;99.90;;;;;;5075460;28;20254;-65
2023/07/31 11:40:29;;;;;;;9.00;8.70;;;25.60;99.90;;;;;;5073354;28;20227;-66
2023/07/31 11:42:57;;;;;;;8.88;8.57;;;25.90;99.90;;;;;;5071699;28;20561;-66
2023/07/31 11:45:27;;;;;;;9.40;9.10;;;26.20;99.90;;;;;;5071363;28;20270;-63
2023/07/31 11:47:55;;;;;;;9.30;8.95;;;26.30;99.90;;;;;;5071647;28;20724;-64
2023/07/31 11:50:24;;;;;;;9.60;9.30;;;26.60;99.90;;;;;;5070673;28;20226;-65
2023/07/31 11:52:53;;;;;;;10.15;9.80;;;26.80;99.90;;;;;;5070933;28;20230;-64
2023/07/31 11:55:20;;;;;;;10.35;9.95;;;26.90;99.90;;;;;;5071417;28;20207;-66
2023/07/31 11:57:49;;;;;;;9.55;9.25;;;26.70;99.90;;;;;;5072175;28;20226;-64
2023/07/31 12:00:17;;;;;;;9.27;8.90;;;26.50;99.90;;;;;;5070962;28;20219;-64
2023/07/31 12:02:45;;;;;;;9.68;9.30;;;26.20;99.90;;;;;;5071227;28;20215;-66
2023/07/31 12:05:13;;;;;;;10.00;9.60;;;26.10;99.90;;;;;;5070275;28;20684;-65
2023/07/31 12:07:47;;;;;;;10.57;10.18;;;26.10;99.90;;;;;;5071069;28;20597;-64
2023/07/31 12:10:24;;;;;;;9.65;9.35;;;26.10;99.90;;;;;;5070742;28;20630;-65
2023/07/31 12:12:59;;;;;;;9.52;9.23;;;26.20;99.90;;;;;;5070162;28;20207;-65
2023/07/31 12:15:34;;;;;;;9.55;9.15;;;26.10;99.90;;;;;;5072913;28;20305;-67
2023/07/31 12:18:01;;;;;;;9.30;9.00;;;26.00;99.90;;;;;;5072988;28;20318;-64
2023/07/31 12:20:28;;;;;;;10.70;10.30;;;26.00;99.90;;;;;;5072878;28;20261;-66
2023/07/31 12:22:58;;;;;;;10.27;9.93;;;26.10;99.90;;;;;;5060932;28;20207;-66
2023/07/31 12:25:29;;;;;;;10.45;10.05;;;26.20;99.90;;;;;;5052342;28;20581;-65
2023/07/31 12:27:56;;;;;;;10.65;10.25;;;26.30;99.90;;;;;;5050816;28;20231;-65
2023/07/31 12:30:32;;;;;;;10.55;10.15;;;26.30;99.90;;;;;;5049878;28;20383;-66
2023/07/31 12:33:04;;;;;;;10.40;10.00;;;26.10;99.90;;;;;;5050633;28;20219;-66
2023/07/31 12:35:36;;;;;;;10.23;9.90;;;26.10;99.90;;;;;;5050621;28;20212;-65
2023/07/31 12:38:03;;;;;;;10.13;9.73;;;26.20;99.90;;;;;;5050160;28;20314;-66